EDDB/SXF METAR and TAF weather

Enter ICAO airport designator
Station Type Date Time Source
EDDB METAR 2020/12/01 20:50 UTC NOAA

EDDB 012050Z 10004KT CAVOK M00/M01 Q1022 NOSIG


Station Type Date Time Source
EDDB Decoded METAR 2020/12/01 20:50 UTC NOAA

Berlin-Schoenefeld, Germany (EDDB) 52-23N 013-31E 50M
Dec 01, 2020 - 03:50 PM EST / 2020.12.01 2050 UTC
Wind: from the E (100 degrees) at 5 MPH (4 KT):0
Visibility: greater than 7 mile(s):0
Temperature: 32 F (0 C)
Windchill: 26 F (-3 C):1
Dew Point: 30 F (-1 C)
Relative Humidity: 92%
Pressure (altimeter): 30.18 in. Hg (1022 hPa)
ob: EDDB 012050Z 10004KT CAVOK M00/M01 Q1022 NOSIG
cycle: 21

Station Type Date Time Source
EDDB TAF 2020/12/01 18:27 UTC NOAA

TAF TAF EDDB 011700Z 0118/0218 11007KT 8000 BKN020
BECMG 0118/0122 4000 BR
TEMPO 0123/0209 1200 BCFG BKN008
BECMG 0209/0212 9999

Example: see airport list